Hayes, Louisiana
Current Conditions -  °F | °C
As of 12:20 AM on Wednesday 26 Nov 2014 (Local Time) from KCWF Reporting Station
Clear Clear  
Wind Chill: 39°   Ceiling: Unl
Heat Index: 39°   Visibility: 10mi
Dew Point: 38°   Wind: 0mph
Humidity: 97%   Direction: NA
Pressure: 30.23"   Gusts: NA
Location:  30.11°N, 92.92°W
Report Text: KCWF 260620Z AUTO 00000KT 10SM CLR 03/03 A3023 RMK AO2 T00380033
Loading
Personal Weather Stations






























Interactive Weather Map New forecast layout! Learn more

10-Day Weather Forecast

Advertisements
Track Severe Weather on mobile